createdAt,value
2022-10-01T00:02:07.731Z,11.46
2022-10-01T00:04:38.215Z,11.43
2022-10-01T00:07:09.501Z,11.43
2022-10-01T00:09:37.018Z,11.41
2022-10-01T00:12:04.130Z,11.39
2022-10-01T00:14:31.176Z,11.37
2022-10-01T00:16:58.312Z,11.36
2022-10-01T00:19:25.437Z,11.32
2022-10-01T00:21:52.435Z,11.32
2022-10-01T00:24:19.491Z,11.34
2022-10-01T00:26:47.643Z,11.31
2022-10-01T00:29:15.678Z,11.28
2022-10-01T00:31:43.476Z,11.27
2022-10-01T00:34:15.007Z,11.27
2022-10-01T00:36:42.387Z,11.25
2022-10-01T00:39:12.742Z,11.27
2022-10-01T00:41:40.543Z,11.25
2022-10-01T00:44:28.171Z,11.24
2022-10-01T00:47:17.777Z,11.24
2022-10-01T00:49:47.195Z,11.24
2022-10-01T00:52:24.742Z,11.24
2022-10-01T00:55:15.593Z,11.23
2022-10-01T00:57:45.440Z,11.24
2022-10-01T01:00:14.917Z,11.24
2022-10-01T01:02:42.231Z,11.23
2022-10-01T01:05:13.643Z,11.25
2022-10-01T01:07:48.833Z,11.25
2022-10-01T01:10:29.812Z,11.24
2022-10-01T01:13:21.726Z,11.24
2022-10-01T01:16:08.064Z,11.23
2022-10-01T01:18:54.468Z,11.19
2022-10-01T01:21:31.193Z,11.17
2022-10-01T01:24:23.353Z,11.13
2022-10-01T01:27:25.547Z,11.10
2022-10-01T01:30:17.921Z,11.04
2022-10-01T01:33:03.172Z,11.03
2022-10-01T01:36:04.561Z,11.01
2022-10-01T01:38:40.439Z,11.00
2022-10-01T01:41:11.143Z,10.98
2022-10-01T01:43:45.430Z,10.99
2022-10-01T01:46:18.343Z,10.95
2022-10-01T01:48:51.104Z,10.95
2022-10-01T01:51:31.600Z,10.96
2022-10-01T01:54:00.194Z,10.97
2022-10-01T01:56:27.585Z,10.95
2022-10-01T01:58:54.689Z,10.96
2022-10-01T02:01:40.043Z,10.97
2022-10-01T02:04:42.829Z,10.97
2022-10-01T02:07:25.041Z,10.99
2022-10-01T02:10:23.881Z,11.02
2022-10-01T02:13:12.580Z,11.03
2022-10-01T02:16:21.021Z,11.07
2022-10-01T02:18:50.730Z,11.10
2022-10-01T02:21:48.006Z,11.12
2022-10-01T02:24:39.052Z,11.13
2022-10-01T02:27:18.467Z,11.14
2022-10-01T02:29:46.392Z,11.15
2022-10-01T02:32:17.262Z,11.15
2022-10-01T02:34:49.397Z,11.16
2022-10-01T02:37:24.682Z,11.15
2022-10-01T02:39:57.371Z,11.15
2022-10-01T02:42:29.593Z,11.12
2022-10-01T02:45:02.552Z,11.12
2022-10-01T02:47:39.352Z,11.10
2022-10-01T02:50:08.771Z,11.07
2022-10-01T02:52:49.070Z,11.03
2022-10-01T02:55:30.621Z,11.03
2022-10-01T02:57:58.447Z,11.03
2022-10-01T03:00:27.137Z,11.04
2022-10-01T03:02:54.783Z,11.05
2022-10-01T03:05:22.300Z,11.07
2022-10-01T03:07:49.706Z,11.07
2022-10-01T03:10:17.025Z,11.09
2022-10-01T03:12:47.899Z,11.09
2022-10-01T03:15:19.343Z,11.09
2022-10-01T03:17:51.049Z,11.13
2022-10-01T03:20:18.468Z,11.13
2022-10-01T03:22:47.297Z,11.16
2022-10-01T03:25:16.011Z,11.17
2022-10-01T03:27:43.477Z,11.17
2022-10-01T03:30:11.332Z,11.20
2022-10-01T03:32:38.772Z,11.23
2022-10-01T03:35:06.377Z,11.22
2022-10-01T03:37:33.290Z,11.26
2022-10-01T03:40:00.233Z,11.28
2022-10-01T03:42:27.249Z,11.29
2022-10-01T03:44:54.126Z,11.29
2022-10-01T03:47:24.418Z,11.30
2022-10-01T03:49:51.477Z,11.31
2022-10-01T03:52:19.074Z,11.34
2022-10-01T03:54:46.036Z,11.36
2022-10-01T03:57:13.129Z,11.38
2022-10-01T03:59:40.036Z,11.41
2022-10-01T04:02:07.662Z,11.42
2022-10-01T04:04:34.776Z,11.44
2022-10-01T04:07:01.776Z,11.47
2022-10-01T04:09:28.830Z,11.48
2022-10-01T04:11:56.092Z,11.50
2022-10-01T04:14:23.052Z,11.53
2022-10-01T04:16:52.444Z,11.55
2022-10-01T04:19:20.191Z,11.55
2022-10-01T04:21:47.999Z,11.57
2022-10-01T04:24:14.994Z,11.58
2022-10-01T04:26:42.019Z,11.58
2022-10-01T04:29:09.648Z,11.60
2022-10-01T04:31:37.167Z,11.63
2022-10-01T04:34:05.634Z,11.65
2022-10-01T04:36:32.658Z,11.67
2022-10-01T04:39:02.360Z,11.70
2022-10-01T04:41:33.647Z,11.73
2022-10-01T04:44:01.151Z,11.76
2022-10-01T04:46:31.313Z,11.77
2022-10-01T04:48:58.421Z,11.80
2022-10-01T04:51:25.904Z,11.81
2022-10-01T04:53:53.042Z,11.83
2022-10-01T04:56:19.978Z,11.86
2022-10-01T04:58:48.197Z,11.86
2022-10-01T05:01:15.189Z,11.91
2022-10-01T05:03:42.243Z,11.93
2022-10-01T05:06:09.325Z,11.96
2022-10-01T05:08:37.546Z,11.98
2022-10-01T05:11:05.743Z,11.99
2022-10-01T05:13:34.728Z,12.00
2022-10-01T05:16:03.705Z,12.01
2022-10-01T05:18:30.830Z,12.02
2022-10-01T05:20:57.889Z,12.02
2022-10-01T05:23:25.157Z,12.02
2022-10-01T05:25:52.272Z,12.04
2022-10-01T05:28:22.460Z,12.04
2022-10-01T05:30:51.212Z,12.04
2022-10-01T05:33:18.410Z,12.07
2022-10-01T05:35:45.463Z,12.09
2022-10-01T05:38:12.590Z,12.11
2022-10-01T05:40:39.673Z,12.12
2022-10-01T05:43:06.696Z,12.14
2022-10-01T05:45:33.843Z,12.13
2022-10-01T05:48:04.759Z,12.15
2022-10-01T05:50:35.276Z,12.18
2022-10-01T05:53:02.798Z,12.18
2022-10-01T05:55:34.877Z,12.20
2022-10-01T05:58:06.291Z,12.23
2022-10-01T06:00:35.059Z,12.25
2022-10-01T06:03:05.229Z,12.23
2022-10-01T06:05:34.917Z,12.30
2022-10-01T06:08:06.112Z,12.30
2022-10-01T06:10:33.194Z,12.33
2022-10-01T06:13:05.747Z,12.34
2022-10-01T06:15:37.773Z,12.37
2022-10-01T06:18:08.827Z,12.39
2022-10-01T06:20:36.699Z,12.42
2022-10-01T06:23:07.398Z,12.42
2022-10-01T06:25:36.404Z,12.45
2022-10-01T06:28:05.927Z,12.47
2022-10-01T06:30:36.873Z,12.54
2022-10-01T06:33:10.874Z,12.68
2022-10-01T06:35:49.818Z,12.79
2022-10-01T06:38:20.240Z,12.89
2022-10-01T06:40:59.908Z,13.00
2022-10-01T06:43:30.064Z,13.08
2022-10-01T06:46:03.031Z,13.13
2022-10-01T06:48:31.295Z,13.20
2022-10-01T06:50:59.441Z,13.26
2022-10-01T06:53:28.639Z,13.31
2022-10-01T06:55:56.134Z,13.29
2022-10-01T06:58:27.930Z,13.30
2022-10-01T07:01:01.344Z,13.36
2022-10-01T07:03:29.806Z,13.40
2022-10-01T07:06:05.278Z,13.46
2022-10-01T07:08:33.423Z,13.54
2022-10-01T07:11:02.825Z,13.62
2022-10-01T07:13:30.735Z,13.79
2022-10-01T07:15:58.080Z,13.95
2022-10-01T07:18:25.890Z,14.01
2022-10-01T07:20:53.279Z,13.97
2022-10-01T07:23:20.348Z,13.94
2022-10-01T07:25:47.355Z,13.93
2022-10-01T07:28:19.994Z,13.97
2022-10-01T07:31:01.805Z,14.05
2022-10-01T07:33:30.099Z,14.07
2022-10-01T07:36:01.420Z,14.12
2022-10-01T07:38:30.302Z,14.19
2022-10-01T07:40:58.969Z,14.19
2022-10-01T07:43:26.136Z,14.12
2022-10-01T07:45:55.189Z,14.11
2022-10-01T07:48:22.352Z,14.19
2022-10-01T07:50:51.166Z,14.27
2022-10-01T07:53:20.572Z,14.40
2022-10-01T07:55:47.761Z,14.55
2022-10-01T07:58:14.879Z,14.52
2022-10-01T08:00:43.408Z,14.58
2022-10-01T08:03:13.610Z,14.71
2022-10-01T08:05:42.473Z,14.77
2022-10-01T08:08:09.850Z,14.88
2022-10-01T08:10:38.834Z,15.00
2022-10-01T08:13:14.437Z,15.04
2022-10-01T08:15:48.040Z,15.03
2022-10-01T08:18:15.073Z,14.99
2022-10-01T08:20:42.496Z,14.93
2022-10-01T08:23:13.061Z,14.89
2022-10-01T08:25:41.768Z,14.81
2022-10-01T08:28:11.185Z,14.82
2022-10-01T08:30:40.732Z,14.84
2022-10-01T08:33:11.874Z,14.80
2022-10-01T08:35:43.676Z,14.73
2022-10-01T08:38:12.333Z,14.76
2022-10-01T08:40:51.113Z,14.83
2022-10-01T08:43:30.789Z,14.92
2022-10-01T08:46:06.714Z,15.07
2022-10-01T08:48:56.831Z,15.14
2022-10-01T08:51:39.054Z,15.16
2022-10-01T08:54:48.094Z,15.18
2022-10-01T08:57:22.972Z,15.21
2022-10-01T08:59:55.697Z,15.19
2022-10-01T09:02:25.850Z,15.07
2022-10-01T09:05:03.977Z,14.98
2022-10-01T09:08:15.284Z,14.88
2022-10-01T09:11:00.776Z,14.86
2022-10-01T09:14:02.831Z,14.85
2022-10-01T09:17:00.970Z,14.85
2022-10-01T09:20:11.900Z,14.79
2022-10-01T09:23:02.344Z,14.77
2022-10-01T09:25:34.547Z,14.76
2022-10-01T09:28:22.124Z,14.81
2022-10-01T09:30:57.403Z,15.03
2022-10-01T09:33:33.292Z,15.17
2022-10-01T09:36:36.415Z,15.33
2022-10-01T09:39:29.795Z,15.44
2022-10-01T09:41:56.908Z,15.61
2022-10-01T09:44:31.072Z,15.86
2022-10-01T09:46:58.876Z,16.01
2022-10-01T09:49:33.813Z,16.18
2022-10-01T09:52:10.587Z,16.17
2022-10-01T09:54:47.632Z,16.12
2022-10-01T09:57:28.457Z,16.27
2022-10-01T10:00:11.959Z,16.36
2022-10-01T10:02:43.448Z,16.44
2022-10-01T10:05:28.079Z,16.53
2022-10-01T10:08:15.567Z,16.74
2022-10-01T10:11:06.618Z,16.94
2022-10-01T10:13:54.304Z,16.96
2022-10-01T10:16:31.991Z,17.17
2022-10-01T10:19:06.905Z,17.41
2022-10-01T10:21:36.563Z,17.56
2022-10-01T10:24:26.700Z,17.76
2022-10-01T10:26:59.240Z,17.91
2022-10-01T10:29:31.527Z,17.77
2022-10-01T10:32:25.137Z,17.66
2022-10-01T10:35:02.104Z,17.52
2022-10-01T10:37:36.802Z,17.65
2022-10-01T10:40:08.430Z,17.72
2022-10-01T10:42:38.742Z,17.64
2022-10-01T10:45:18.115Z,17.83
2022-10-01T10:47:51.453Z,17.87
2022-10-01T10:50:33.644Z,17.85
2022-10-01T10:53:44.003Z,17.95
2022-10-01T10:56:24.703Z,18.45
2022-10-01T10:58:53.886Z,18.79
2022-10-01T11:01:29.588Z,19.07
2022-10-01T11:04:00.333Z,19.21
2022-10-01T11:06:28.572Z,19.33
2022-10-01T11:09:07.195Z,19.32
2022-10-01T11:12:06.084Z,19.35
2022-10-01T11:15:11.124Z,19.18
2022-10-01T11:18:16.697Z,18.94
2022-10-01T11:21:16.566Z,18.53
2022-10-01T11:24:08.853Z,18.22
2022-10-01T11:27:24.334Z,18.30
2022-10-01T11:30:28.636Z,18.29
2022-10-01T11:33:16.942Z,18.10
2022-10-01T11:36:00.833Z,18.10
2022-10-01T11:38:46.264Z,18.23
2022-10-01T11:41:30.867Z,18.35
2022-10-01T11:44:13.732Z,18.26
2022-10-01T11:46:54.226Z,18.39
2022-10-01T11:49:52.198Z,18.54
2022-10-01T11:53:22.630Z,18.76
2022-10-01T11:56:25.040Z,18.80
2022-10-01T11:59:19.267Z,18.73
2022-10-01T12:02:15.318Z,18.71
2022-10-01T12:04:58.145Z,18.76
2022-10-01T12:07:40.125Z,18.85
2022-10-01T12:10:28.932Z,18.90
2022-10-01T12:13:16.501Z,18.69
2022-10-01T12:15:55.875Z,18.63
2022-10-01T12:19:00.172Z,18.50
2022-10-01T12:22:03.733Z,18.06
2022-10-01T12:24:50.295Z,17.69
2022-10-01T12:27:48.042Z,17.47
2022-10-01T12:31:16.836Z,17.34
2022-10-01T12:34:43.051Z,17.37
2022-10-01T12:38:06.369Z,17.61
2022-10-01T12:41:42.975Z,17.83
2022-10-01T12:44:40.331Z,18.09
2022-10-01T12:47:36.377Z,18.36
2022-10-01T12:50:35.704Z,18.62
2022-10-01T12:53:18.236Z,18.58
2022-10-01T12:56:09.510Z,18.72
2022-10-01T12:58:52.244Z,18.82
2022-10-01T13:01:34.797Z,18.92
2022-10-01T13:04:56.611Z,18.87
2022-10-01T13:07:46.751Z,18.82
2022-10-01T13:10:21.669Z,18.74
2022-10-01T13:13:04.299Z,18.75
2022-10-01T13:15:44.040Z,18.85
2022-10-01T13:18:30.495Z,18.99
2022-10-01T13:21:08.879Z,19.09
2022-10-01T13:23:49.071Z,19.22
2022-10-01T13:26:47.123Z,19.49
2022-10-01T13:29:29.887Z,19.75
2022-10-01T13:32:05.808Z,19.89
2022-10-01T13:34:40.319Z,20.00
2022-10-01T13:37:32.114Z,20.04
2022-10-01T13:40:00.919Z,20.01
2022-10-01T13:42:44.192Z,19.98
2022-10-01T13:45:41.494Z,19.93
2022-10-01T13:48:12.917Z,19.92
2022-10-01T13:51:05.069Z,19.90
2022-10-01T13:53:40.956Z,19.77
2022-10-01T13:56:12.913Z,19.70
2022-10-01T13:58:47.192Z,19.51
2022-10-01T14:01:23.635Z,19.52
2022-10-01T14:04:23.649Z,19.63
2022-10-01T14:07:15.879Z,19.79
2022-10-01T14:09:48.605Z,20.01
2022-10-01T14:12:48.038Z,20.02
2022-10-01T14:15:40.432Z,19.96
2022-10-01T14:18:17.898Z,20.02
2022-10-01T14:21:21.427Z,20.05
2022-10-01T14:23:56.929Z,19.98
2022-10-01T14:27:00.698Z,19.93
2022-10-01T14:29:46.489Z,19.71
2022-10-01T14:33:01.829Z,19.56
2022-10-01T14:35:50.111Z,19.45
2022-10-01T14:38:22.478Z,19.53
2022-10-01T14:40:51.779Z,19.52
2022-10-01T14:43:25.734Z,19.47
2022-10-01T14:46:13.215Z,19.36
2022-10-01T14:48:41.943Z,19.27
2022-10-01T14:51:27.932Z,19.21
2022-10-01T14:54:00.209Z,19.13
2022-10-01T14:56:29.361Z,19.09
2022-10-01T14:59:04.138Z,19.17
2022-10-01T15:01:32.249Z,19.19
2022-10-01T15:04:00.674Z,19.14
2022-10-01T15:06:29.939Z,19.08
2022-10-01T15:09:14.999Z,18.99
2022-10-01T15:11:44.831Z,18.94
2022-10-01T15:14:21.269Z,18.87
2022-10-01T15:16:49.724Z,18.72
2022-10-01T15:19:22.965Z,18.72
2022-10-01T15:21:54.708Z,18.54
2022-10-01T15:24:30.213Z,18.56
2022-10-01T15:26:59.633Z,18.56
2022-10-01T15:29:26.799Z,18.55
2022-10-01T15:31:58.329Z,18.61
2022-10-01T15:34:27.788Z,18.62
2022-10-01T15:36:55.701Z,18.54
2022-10-01T15:39:38.379Z,18.43
2022-10-01T15:42:31.347Z,18.36
2022-10-01T15:45:07.227Z,18.27
2022-10-01T15:47:39.323Z,18.19
2022-10-01T15:50:12.593Z,18.07
2022-10-01T15:52:55.887Z,18.00
2022-10-01T15:55:30.518Z,17.91
2022-10-01T15:58:06.820Z,17.86
2022-10-01T16:00:57.558Z,17.69
2022-10-01T16:03:32.525Z,17.61
2022-10-01T16:06:06.262Z,17.51
2022-10-01T16:08:55.708Z,17.44
2022-10-01T16:11:26.444Z,17.36
2022-10-01T16:14:42.260Z,17.32
2022-10-01T16:17:18.045Z,17.25
2022-10-01T16:19:52.207Z,17.17
2022-10-01T16:22:38.469Z,17.13
2022-10-01T16:25:26.761Z,17.09
2022-10-01T16:28:35.404Z,17.04
2022-10-01T16:31:07.148Z,17.01
2022-10-01T16:33:38.296Z,16.98
2022-10-01T16:36:24.010Z,16.88
2022-10-01T16:38:51.316Z,16.81
2022-10-01T16:41:24.606Z,16.68
2022-10-01T16:43:57.035Z,16.55
2022-10-01T16:46:24.464Z,16.42
2022-10-01T16:48:52.032Z,16.33
2022-10-01T16:51:20.556Z,16.26
2022-10-01T16:53:51.181Z,16.14
2022-10-01T16:56:26.959Z,16.06
2022-10-01T16:58:54.607Z,15.97
2022-10-01T17:01:21.827Z,15.90
2022-10-01T17:03:49.020Z,15.84
2022-10-01T17:06:16.047Z,15.76
2022-10-01T17:08:43.119Z,15.69
2022-10-01T17:11:12.788Z,15.62
2022-10-01T17:13:39.964Z,15.55
2022-10-01T17:16:07.235Z,15.48
2022-10-01T17:18:34.243Z,15.41
2022-10-01T17:21:05.590Z,15.36
2022-10-01T17:23:34.873Z,15.33
2022-10-01T17:26:05.685Z,15.31
2022-10-01T17:28:35.435Z,15.28
2022-10-01T17:31:07.294Z,15.25
2022-10-01T17:33:34.491Z,15.19
2022-10-01T17:36:08.085Z,15.11
2022-10-01T17:38:35.416Z,15.04
2022-10-01T17:41:03.747Z,14.98
2022-10-01T17:43:30.887Z,14.91
2022-10-01T17:46:00.954Z,14.84
2022-10-01T17:48:29.931Z,14.81
2022-10-01T17:51:06.560Z,14.76
2022-10-01T17:53:41.365Z,14.73
2022-10-01T17:56:15.984Z,14.71
2022-10-01T17:58:45.626Z,14.66
2022-10-01T18:01:20.260Z,14.62
2022-10-01T18:03:51.978Z,14.57
2022-10-01T18:06:18.975Z,14.53
2022-10-01T18:08:58.967Z,14.48
2022-10-01T18:11:28.232Z,14.40
2022-10-01T18:13:57.402Z,14.35
2022-10-01T18:16:26.006Z,14.28
2022-10-01T18:21:47.284Z,14.14
2022-10-01T18:24:16.016Z,14.08
2022-10-01T18:26:44.636Z,14.03
2022-10-01T18:29:25.725Z,13.96
2022-10-01T18:32:01.485Z,13.91
2022-10-01T18:34:39.632Z,13.87
2022-10-01T18:37:27.339Z,13.82
2022-10-01T18:40:25.591Z,13.79
2022-10-01T18:43:22.105Z,13.73
2022-10-01T18:46:18.364Z,13.68
2022-10-01T18:49:12.339Z,13.62
2022-10-01T18:52:00.539Z,13.54
2022-10-01T18:54:46.694Z,13.49
2022-10-01T18:57:44.858Z,13.47
2022-10-01T19:00:21.355Z,13.49
2022-10-01T19:03:19.221Z,13.55
2022-10-01T19:06:04.835Z,13.60
2022-10-01T19:09:53.773Z,13.66
2022-10-01T19:13:05.628Z,13.71
2022-10-01T19:15:35.456Z,13.74
2022-10-01T19:18:28.519Z,13.76
2022-10-01T19:21:38.062Z,13.73
2022-10-01T19:24:15.215Z,13.69
2022-10-01T19:26:57.709Z,13.62
2022-10-01T19:29:33.885Z,13.56
2022-10-01T19:32:21.681Z,13.53
2022-10-01T19:35:04.791Z,13.49
2022-10-01T19:37:46.951Z,13.45
2022-10-01T19:40:48.358Z,13.40
2022-10-01T19:43:42.142Z,13.38
2022-10-01T19:46:45.847Z,13.35
2022-10-01T19:49:42.412Z,13.34
2022-10-01T19:52:18.272Z,13.31
2022-10-01T19:55:00.847Z,13.31
2022-10-01T19:57:29.674Z,13.30
2022-10-01T20:00:07.531Z,13.29
2022-10-01T20:02:45.167Z,13.29
2022-10-01T20:05:25.164Z,13.28
2022-10-01T20:08:02.915Z,13.25
2022-10-01T20:10:42.744Z,13.22
2022-10-01T20:13:26.842Z,13.19
2022-10-01T20:16:23.255Z,13.17
2022-10-01T20:19:04.908Z,13.15
2022-10-01T20:21:44.028Z,13.12
2022-10-01T20:24:39.893Z,13.08
2022-10-01T20:27:48.424Z,13.04
2022-10-01T20:30:21.666Z,13.00
2022-10-01T20:33:23.989Z,12.98
2022-10-01T20:36:07.947Z,12.96
2022-10-01T20:38:56.214Z,12.91
2022-10-01T20:41:30.031Z,12.91
2022-10-01T20:44:01.604Z,12.85
2022-10-01T20:46:47.220Z,12.84
2022-10-01T20:49:38.191Z,12.80
2022-10-01T20:52:31.020Z,12.78
2022-10-01T20:55:18.112Z,12.77
2022-10-01T20:57:55.705Z,12.77
2022-10-01T21:00:27.249Z,12.76
2022-10-01T21:03:25.576Z,12.76
2022-10-01T21:06:26.593Z,12.70
2022-10-01T21:09:03.243Z,12.67
2022-10-01T21:11:39.728Z,12.64
2022-10-01T21:14:15.908Z,12.62
2022-10-01T21:17:22.576Z,12.59
2022-10-01T21:20:08.318Z,12.56
2022-10-01T21:23:06.666Z,12.52
2022-10-01T21:26:39.492Z,12.48
2022-10-01T21:29:34.067Z,12.43
2022-10-01T21:32:25.827Z,12.42
2022-10-01T21:35:21.463Z,12.40
2022-10-01T21:38:33.332Z,12.36
2022-10-01T21:41:24.877Z,12.34
2022-10-01T21:44:32.293Z,12.33
2022-10-01T21:47:12.376Z,12.31
2022-10-01T21:50:01.128Z,12.26
2022-10-01T21:53:10.083Z,12.25
2022-10-01T21:56:23.635Z,12.20
2022-10-01T21:59:20.271Z,12.20
2022-10-01T22:02:26.702Z,12.20
2022-10-01T22:05:03.976Z,12.16
2022-10-01T22:07:50.818Z,12.17
2022-10-01T22:10:34.148Z,12.14
2022-10-01T22:13:11.275Z,12.14
2022-10-01T22:15:44.712Z,12.11
2022-10-01T22:18:42.926Z,12.10
2022-10-01T22:21:22.860Z,12.10
2022-10-01T22:24:02.512Z,12.08
2022-10-01T22:26:37.256Z,12.05
2022-10-01T22:29:14.732Z,12.08
2022-10-01T22:31:45.116Z,12.06
2022-10-01T22:34:22.364Z,12.06
2022-10-01T22:36:58.616Z,12.06
2022-10-01T22:39:35.591Z,12.06
2022-10-01T22:42:16.160Z,12.06
2022-10-01T22:44:43.808Z,12.04
2022-10-01T22:47:34.643Z,12.04
2022-10-01T22:50:28.196Z,12.05
2022-10-01T22:53:08.793Z,12.06
2022-10-01T22:55:48.208Z,12.09
2022-10-01T22:58:30.371Z,12.10
2022-10-01T23:01:16.342Z,12.12
2022-10-01T23:04:00.048Z,12.12
2022-10-01T23:06:57.574Z,12.16
2022-10-01T23:09:43.475Z,12.17
2022-10-01T23:12:24.788Z,12.20
2022-10-01T23:15:17.473Z,12.22
2022-10-01T23:18:13.359Z,12.23
2022-10-01T23:21:09.879Z,12.24
2022-10-01T23:23:37.081Z,12.30
2022-10-01T23:26:51.103Z,12.37
2022-10-01T23:29:44.318Z,12.43
2022-10-01T23:32:37.337Z,12.50
2022-10-01T23:35:26.601Z,12.57
2022-10-01T23:38:27.721Z,12.61
2022-10-01T23:41:02.020Z,12.65
2022-10-01T23:43:49.284Z,12.70
2022-10-01T23:46:30.200Z,12.74
2022-10-01T23:49:17.029Z,12.77
2022-10-01T23:52:09.871Z,12.80
2022-10-01T23:54:44.143Z,12.84
2022-10-01T23:57:28.967Z,12.97
